createdAt,value
2018-06-28T00:00:09.818Z,3.60
2018-06-28T00:02:39.029Z,3.30
2018-06-28T00:05:08.288Z,3.50
2018-06-28T00:11:10.033Z,4.07
2018-06-28T00:13:39.205Z,3.30
2018-06-28T00:16:08.462Z,3.70
2018-06-28T00:18:37.654Z,4.33
2018-06-28T00:21:06.951Z,3.60
2018-06-28T00:23:36.086Z,3.90
2018-06-28T00:26:05.227Z,3.60
2018-06-28T00:28:34.391Z,3.80
2018-06-28T00:31:03.611Z,3.87
2018-06-28T00:33:32.799Z,4.10
2018-06-28T00:36:01.972Z,4.20
2018-06-28T00:38:31.189Z,4.37
2018-06-28T00:41:00.403Z,4.10
2018-06-28T00:43:29.612Z,4.30
2018-06-28T00:45:58.858Z,3.73
2018-06-28T00:48:28.054Z,4.10
2018-06-28T00:50:57.313Z,3.67
2018-06-28T00:53:26.455Z,3.77
2018-06-28T00:55:55.679Z,3.63
2018-06-28T00:58:24.841Z,4.10
2018-06-28T01:00:54.015Z,3.77
2018-06-28T01:03:23.182Z,3.13
2018-06-28T01:05:52.377Z,3.93
2018-06-28T01:08:21.614Z,3.83
2018-06-28T01:10:50.770Z,3.73
2018-06-28T01:13:20.028Z,3.77
2018-06-28T01:15:49.266Z,3.90
2018-06-28T01:18:18.418Z,3.50
2018-06-28T01:20:47.684Z,3.90
2018-06-28T01:23:16.812Z,3.93
2018-06-28T01:25:45.948Z,3.73
2018-06-28T01:28:15.100Z,3.83
2018-06-28T01:30:44.228Z,3.30
2018-06-28T01:33:13.524Z,3.83
2018-06-28T01:35:42.726Z,3.83
2018-06-28T01:38:11.866Z,3.67
2018-06-28T01:40:41.012Z,3.70
2018-06-28T01:43:36.755Z,3.50
2018-06-28T01:46:05.948Z,3.23
2018-06-28T01:48:35.101Z,3.67
2018-06-28T01:51:04.336Z,3.97
2018-06-28T01:53:33.493Z,3.70
2018-06-28T01:56:02.698Z,4.40
2018-06-28T01:58:31.887Z,4.27
2018-06-28T02:01:01.095Z,4.90
2018-06-28T02:03:30.237Z,4.70
2018-06-28T02:05:59.384Z,4.60
2018-06-28T02:08:28.502Z,3.80
2018-06-28T02:10:57.731Z,3.80
2018-06-28T02:13:26.884Z,4.27
2018-06-28T02:15:56.192Z,4.30
2018-06-28T02:18:25.382Z,4.10
2018-06-28T02:20:54.612Z,3.93
2018-06-28T02:23:23.786Z,4.07
2018-06-28T02:25:52.912Z,4.20
2018-06-28T02:28:22.064Z,4.50
2018-06-28T02:30:51.194Z,4.40
2018-06-28T02:33:20.332Z,4.13
2018-06-28T02:35:49.508Z,4.10
2018-06-28T02:38:18.689Z,4.07
2018-06-28T02:40:47.819Z,4.13
2018-06-28T02:43:17.010Z,4.23
2018-06-28T02:45:46.137Z,4.20
2018-06-28T02:48:15.262Z,4.20
2018-06-28T02:50:44.397Z,5.23
2018-06-28T02:53:13.549Z,4.87
2018-06-28T02:55:42.698Z,5.07
2018-06-28T02:58:11.911Z,4.30
2018-06-28T03:00:41.123Z,4.33
2018-06-28T03:03:10.275Z,4.73
2018-06-28T03:05:39.446Z,4.97
2018-06-28T03:08:08.852Z,4.50
2018-06-28T03:10:38.077Z,4.57
2018-06-28T03:13:07.257Z,4.37
2018-06-28T03:15:36.457Z,5.03
2018-06-28T03:18:05.607Z,5.20
2018-06-28T03:20:34.852Z,4.97
2018-06-28T03:23:04.057Z,4.57
2018-06-28T03:25:33.154Z,5.57
2018-06-28T03:28:02.321Z,4.60
2018-06-28T03:30:31.487Z,6.07
2018-06-28T03:33:00.659Z,4.73
2018-06-28T03:35:29.839Z,5.37
2018-06-28T03:37:59.058Z,4.80
2018-06-28T03:40:28.098Z,5.00
2018-06-28T03:42:57.185Z,5.43
2018-06-28T03:45:26.279Z,5.70
2018-06-28T03:47:55.449Z,5.30
2018-06-28T03:50:24.575Z,5.27
2018-06-28T03:52:53.643Z,4.97
2018-06-28T03:55:22.799Z,5.80
2018-06-28T03:57:51.995Z,5.47
2018-06-28T04:00:21.242Z,5.00
2018-06-28T04:02:50.401Z,5.87
2018-06-28T04:05:19.652Z,5.93
2018-06-28T04:07:49.090Z,5.73
2018-06-28T04:10:18.249Z,5.70
2018-06-28T04:12:47.365Z,5.80
2018-06-28T04:15:16.650Z,5.80
2018-06-28T04:17:45.782Z,5.80
2018-06-28T04:20:15.026Z,6.07
2018-06-28T04:22:44.207Z,5.67
2018-06-28T04:25:13.413Z,5.30
2018-06-28T04:27:42.580Z,5.70
2018-06-28T04:30:11.784Z,6.13
2018-06-28T04:32:40.953Z,6.20
2018-06-28T04:35:10.144Z,6.27
2018-06-28T04:37:39.273Z,6.03
2018-06-28T04:40:08.425Z,6.50
2018-06-28T04:42:37.602Z,5.37
2018-06-28T04:45:06.938Z,5.73
2018-06-28T04:47:36.105Z,6.07
2018-06-28T04:50:05.317Z,6.00
2018-06-28T04:52:34.560Z,5.90
2018-06-28T04:55:03.934Z,6.00
2018-06-28T04:57:33.113Z,6.20
2018-06-28T05:00:02.254Z,6.40
2018-06-28T05:02:31.447Z,6.83
2018-06-28T05:05:00.665Z,6.77
2018-06-28T05:07:29.841Z,6.50
2018-06-28T05:09:59.015Z,6.87
2018-06-28T05:12:28.222Z,6.37
2018-06-28T05:14:57.356Z,7.10
2018-06-28T05:17:26.575Z,6.40
2018-06-28T05:19:55.759Z,6.50
2018-06-28T05:22:24.959Z,6.77
2018-06-28T05:24:54.141Z,7.30
2018-06-28T05:27:23.355Z,6.50
2018-06-28T05:29:52.546Z,6.97
2018-06-28T05:32:21.782Z,6.40
2018-06-28T05:34:51.252Z,6.53
2018-06-28T05:37:20.412Z,6.40
2018-06-28T05:39:49.683Z,6.23
2018-06-28T05:42:18.866Z,7.10
2018-06-28T05:44:48.119Z,6.87
2018-06-28T05:47:17.318Z,6.67
2018-06-28T05:49:46.565Z,7.40
2018-06-28T05:52:15.790Z,7.17
2018-06-28T05:54:45.005Z,7.23
2018-06-28T05:57:14.274Z,7.03
2018-06-28T05:59:43.803Z,7.73
2018-06-28T06:02:13.070Z,7.37
2018-06-28T06:04:42.289Z,6.70
2018-06-28T06:07:11.817Z,6.83
2018-06-28T06:09:41.017Z,7.60
2018-06-28T06:12:10.376Z,6.53
2018-06-28T06:14:39.490Z,7.80
2018-06-28T06:17:08.658Z,7.40
2018-06-28T06:19:37.856Z,7.77
2018-06-28T06:22:07.060Z,7.67
2018-06-28T06:24:36.203Z,7.17
2018-06-28T06:27:05.429Z,7.53
2018-06-28T06:29:34.610Z,8.03
2018-06-28T06:32:03.900Z,7.60
2018-06-28T06:34:33.109Z,7.67
2018-06-28T06:37:02.359Z,7.80
2018-06-28T06:39:31.680Z,7.60
2018-06-28T06:42:00.868Z,8.30
2018-06-28T06:44:30.020Z,7.87
2018-06-28T06:46:59.349Z,7.40
2018-06-28T06:49:28.544Z,7.50
2018-06-28T06:51:57.696Z,7.53
2018-06-28T06:54:26.809Z,7.90
2018-06-28T06:56:56.000Z,7.77
2018-06-28T06:59:25.138Z,9.13
2018-06-28T07:01:54.245Z,8.70
2018-06-28T07:04:23.378Z,8.37
2018-06-28T07:06:52.562Z,8.00
2018-06-28T07:09:21.740Z,8.53
2018-06-28T07:11:50.928Z,8.77
2018-06-28T07:14:20.110Z,9.33
2018-06-28T07:16:49.264Z,9.23
2018-06-28T07:19:18.410Z,8.30
2018-06-28T07:21:47.646Z,8.87
2018-06-28T07:24:16.864Z,8.73
2018-06-28T07:26:46.083Z,9.10
2018-06-28T07:29:15.160Z,9.60
2018-06-28T07:31:44.318Z,9.30
2018-06-28T07:34:13.487Z,8.40
2018-06-28T07:36:42.582Z,9.87
2018-06-28T07:39:13.078Z,9.10
2018-06-28T07:41:42.268Z,9.13
2018-06-28T07:44:11.460Z,9.10
2018-06-28T07:46:40.600Z,8.93
2018-06-28T07:49:09.791Z,9.20
2018-06-28T07:51:38.921Z,9.40
2018-06-28T07:54:08.063Z,8.73
2018-06-28T07:56:37.247Z,9.13
2018-06-28T07:59:06.372Z,9.57
2018-06-28T08:01:35.565Z,9.50
2018-06-28T08:04:04.743Z,9.10
2018-06-28T08:06:33.886Z,8.83
2018-06-28T08:09:04.059Z,9.30
2018-06-28T08:11:33.239Z,8.90
2018-06-28T08:14:02.370Z,9.20
2018-06-28T08:16:31.626Z,9.00
2018-06-28T08:19:00.788Z,9.30
2018-06-28T08:21:29.924Z,9.63
2018-06-28T08:23:59.054Z,9.20
2018-06-28T08:26:28.252Z,11.20
2018-06-28T08:28:57.410Z,10.00
2018-06-28T08:31:26.610Z,9.13
2018-06-28T08:33:56.032Z,9.70
2018-06-28T08:36:25.185Z,9.60
2018-06-28T08:38:54.328Z,9.67
2018-06-28T08:41:23.493Z,9.07
2018-06-28T08:43:52.692Z,9.70
2018-06-28T08:46:21.870Z,8.67
2018-06-28T08:48:51.065Z,10.23
2018-06-28T08:51:20.190Z,10.47
2018-06-28T08:53:49.389Z,10.30
2018-06-28T08:56:18.566Z,10.93
2018-06-28T08:58:47.803Z,10.53
2018-06-28T09:01:17.026Z,9.60
2018-06-28T09:03:46.158Z,10.60
2018-06-28T09:06:15.432Z,8.80
2018-06-28T09:08:44.709Z,10.37
2018-06-28T09:11:14.035Z,10.73
2018-06-28T09:13:43.171Z,10.67
2018-06-28T09:16:12.297Z,9.83
2018-06-28T09:18:41.724Z,10.30
2018-06-28T09:21:10.874Z,11.10
2018-06-28T09:23:40.087Z,10.37
2018-06-28T09:26:09.349Z,10.80
2018-06-28T09:28:38.496Z,9.87
2018-06-28T09:31:07.724Z,10.30
2018-06-28T09:33:37.006Z,10.30
2018-06-28T09:36:06.231Z,9.90
2018-06-28T09:38:35.424Z,9.53
2018-06-28T09:41:04.627Z,9.73
2018-06-28T09:43:33.832Z,10.37
2018-06-28T09:46:03.323Z,9.90
2018-06-28T09:48:32.535Z,8.97
2018-06-28T09:51:01.638Z,10.50
2018-06-28T09:53:30.848Z,9.60
2018-06-28T09:56:00.046Z,10.30
2018-06-28T09:58:29.200Z,10.17
2018-06-28T10:00:58.372Z,9.70
2018-06-28T10:03:27.684Z,10.83
2018-06-28T10:05:56.821Z,10.30
2018-06-28T10:08:26.005Z,11.17
2018-06-28T10:10:55.170Z,10.27
2018-06-28T10:13:24.300Z,10.70
2018-06-28T10:15:53.477Z,10.60
2018-06-28T10:18:22.655Z,10.77
2018-06-28T10:20:51.859Z,10.77
2018-06-28T10:23:21.093Z,10.90
2018-06-28T10:25:50.343Z,10.57
2018-06-28T10:28:19.588Z,11.00
2018-06-28T10:30:48.757Z,10.53
2018-06-28T10:33:17.941Z,10.57
2018-06-28T10:35:47.105Z,9.93
2018-06-28T10:38:16.332Z,10.63
2018-06-28T10:40:45.526Z,11.10
2018-06-28T10:43:14.693Z,10.83
2018-06-28T10:45:43.803Z,11.00
2018-06-28T10:48:12.996Z,12.30
2018-06-28T10:50:42.177Z,12.37
2018-06-28T10:53:11.645Z,10.20
2018-06-28T10:55:40.790Z,11.20
2018-06-28T10:58:09.906Z,10.73
2018-06-28T11:00:39.121Z,10.37
2018-06-28T11:03:08.281Z,11.20
2018-06-28T11:05:37.421Z,10.67
2018-06-28T11:08:06.609Z,10.97
2018-06-28T11:10:35.751Z,10.37
2018-06-28T11:13:04.927Z,10.43
2018-06-28T11:15:34.113Z,10.70
2018-06-28T11:18:03.304Z,9.67
2018-06-28T11:20:32.482Z,9.43
2018-06-28T11:23:01.654Z,10.30
2018-06-28T11:25:30.830Z,10.70
2018-06-28T11:27:59.943Z,10.33
2018-06-28T11:30:29.152Z,10.10
2018-06-28T11:32:58.281Z,11.77
2018-06-28T11:35:27.505Z,11.20
2018-06-28T11:37:57.105Z,10.33
2018-06-28T11:40:26.670Z,10.83
2018-06-28T11:42:55.797Z,11.10
2018-06-28T11:45:24.953Z,10.97
2018-06-28T11:47:54.103Z,11.03
2018-06-28T11:50:23.284Z,10.80
2018-06-28T11:52:52.540Z,11.10
2018-06-28T11:55:21.760Z,10.53
2018-06-28T11:57:51.043Z,11.43
2018-06-28T12:00:20.295Z,11.70
2018-06-28T12:02:49.443Z,11.40
2018-06-28T12:05:18.771Z,12.47
2018-06-28T12:07:47.934Z,11.60
2018-06-28T12:10:17.052Z,12.30
2018-06-28T12:12:46.277Z,11.90
2018-06-28T12:15:15.515Z,12.10
2018-06-28T12:17:44.745Z,12.60
2018-06-28T12:20:14.014Z,11.87
2018-06-28T12:22:43.217Z,12.00
2018-06-28T12:25:12.405Z,11.60
2018-06-28T12:27:41.629Z,12.33
2018-06-28T12:30:10.844Z,11.70
2018-06-28T12:32:39.992Z,11.70
2018-06-28T12:35:09.168Z,14.37
2018-06-28T12:37:38.312Z,12.90
2018-06-28T12:40:07.570Z,12.47
2018-06-28T12:42:36.697Z,12.20
2018-06-28T12:45:06.080Z,11.20
2018-06-28T12:47:52.749Z,11.97
2018-06-28T12:50:22.146Z,11.63
2018-06-28T12:52:55.507Z,12.13
2018-06-28T12:55:25.409Z,11.37
2018-06-28T12:57:58.354Z,11.77
2018-06-28T13:00:27.549Z,11.00
2018-06-28T13:02:56.705Z,10.60
2018-06-28T13:05:25.865Z,10.67
2018-06-28T13:07:56.058Z,11.10
2018-06-28T13:10:25.388Z,10.47
2018-06-28T13:12:54.608Z,10.90
2018-06-28T13:15:23.759Z,10.17
2018-06-28T13:17:52.930Z,9.90
2018-06-28T13:20:22.249Z,10.23
2018-06-28T13:22:51.424Z,9.93
2018-06-28T13:25:20.572Z,10.57
2018-06-28T13:27:49.758Z,11.33
2018-06-28T13:30:18.900Z,10.90
2018-06-28T13:32:48.096Z,9.97
2018-06-28T13:35:17.344Z,11.07
2018-06-28T13:37:46.560Z,10.23
2018-06-28T13:40:15.729Z,10.20
2018-06-28T13:42:44.930Z,10.33
2018-06-28T13:45:14.117Z,9.63
2018-06-28T13:47:43.335Z,9.10
2018-06-28T13:50:12.482Z,8.87
2018-06-28T13:52:41.636Z,8.47
2018-06-28T13:55:10.845Z,8.57
2018-06-28T13:57:40.154Z,8.47
2018-06-28T14:00:09.475Z,8.73
2018-06-28T14:02:38.617Z,9.07
2018-06-28T14:05:07.818Z,8.10
2018-06-28T14:07:36.982Z,8.80
2018-06-28T14:10:06.186Z,7.63
2018-06-28T14:12:35.399Z,8.00
2018-06-28T14:15:05.002Z,8.37
2018-06-28T14:17:34.630Z,8.83
2018-06-28T14:20:05.025Z,9.70
2018-06-28T14:22:34.237Z,9.33
2018-06-28T14:25:04.024Z,8.83
2018-06-28T14:27:33.195Z,7.53
2018-06-28T14:30:03.384Z,8.20
2018-06-28T14:32:32.601Z,8.50
2018-06-28T14:35:01.836Z,8.00
2018-06-28T14:37:30.936Z,7.63
2018-06-28T14:40:00.112Z,8.13
2018-06-28T14:42:29.334Z,7.40
2018-06-28T14:44:58.515Z,7.30
2018-06-28T14:47:27.913Z,6.93
2018-06-28T14:49:57.150Z,7.37
2018-06-28T14:52:26.330Z,6.47
2018-06-28T14:54:55.472Z,6.43
2018-06-28T14:57:24.729Z,6.90
2018-06-28T14:59:53.869Z,6.60
2018-06-28T15:02:23.022Z,6.30
2018-06-28T15:04:52.175Z,7.10
2018-06-28T15:07:21.370Z,7.40
2018-06-28T15:09:50.545Z,6.47
2018-06-28T15:12:19.900Z,6.07
2018-06-28T15:14:49.032Z,6.20
2018-06-28T15:17:18.257Z,5.97
2018-06-28T15:19:47.375Z,6.30
2018-06-28T15:22:17.308Z,6.20
2018-06-28T15:24:46.657Z,6.47
2018-06-28T15:27:15.943Z,6.03
2018-06-28T15:29:45.153Z,6.40
2018-06-28T15:32:14.367Z,6.30
2018-06-28T15:34:43.591Z,5.73
2018-06-28T15:37:12.794Z,6.60
2018-06-28T15:39:41.948Z,6.13
2018-06-28T15:42:11.365Z,6.23
2018-06-28T15:44:40.698Z,5.60
2018-06-28T15:47:09.909Z,6.00
2018-06-28T15:49:39.094Z,6.03
2018-06-28T15:52:08.410Z,6.17
2018-06-28T15:54:37.516Z,6.00
2018-06-28T15:57:06.678Z,6.20
2018-06-28T15:59:35.914Z,6.17
2018-06-28T16:02:05.205Z,6.10
2018-06-28T16:04:34.554Z,6.43
2018-06-28T16:07:03.790Z,6.47
2018-06-28T16:09:33.004Z,6.37
2018-06-28T16:12:02.221Z,6.40
2018-06-28T16:14:31.450Z,6.60
2018-06-28T16:17:00.667Z,6.17
2018-06-28T16:19:30.005Z,6.57
2018-06-28T16:21:59.371Z,6.00
2018-06-28T16:24:28.504Z,6.13
2018-06-28T16:26:57.729Z,6.10
2018-06-28T16:29:26.907Z,6.93
2018-06-28T16:31:56.157Z,6.10
2018-06-28T16:34:25.362Z,6.80
2018-06-28T16:36:54.579Z,6.47
2018-06-28T16:39:23.711Z,5.77
2018-06-28T16:41:52.926Z,5.40
2018-06-28T16:44:22.131Z,5.43
2018-06-28T16:46:51.601Z,6.60
2018-06-28T16:49:20.731Z,5.73
2018-06-28T16:51:49.999Z,6.00
2018-06-28T16:54:19.205Z,6.17
2018-06-28T16:56:48.413Z,5.07
2018-06-28T16:59:17.563Z,5.97
2018-06-28T17:01:46.718Z,5.80
2018-06-28T17:04:16.068Z,5.47
2018-06-28T17:06:45.408Z,5.40
2018-06-28T17:09:14.538Z,5.70
2018-06-28T17:11:43.735Z,5.70
2018-06-28T17:14:12.962Z,5.67
2018-06-28T17:16:42.236Z,6.10
2018-06-28T17:19:11.517Z,5.60
2018-06-28T17:21:40.741Z,6.37
2018-06-28T17:24:09.946Z,5.37
2018-06-28T17:26:39.725Z,5.53
2018-06-28T17:29:08.959Z,5.30
2018-06-28T17:31:38.224Z,5.70
2018-06-28T17:34:07.440Z,5.20
2018-06-28T17:36:36.705Z,5.90
2018-06-28T17:39:07.465Z,5.70
2018-06-28T17:41:36.639Z,5.20
2018-06-28T17:44:05.850Z,5.67
2018-06-28T17:46:35.101Z,5.90
2018-06-28T17:49:04.297Z,5.87
2018-06-28T17:51:33.506Z,6.70
2018-06-28T17:54:02.994Z,5.70
2018-06-28T17:56:32.258Z,5.57
2018-06-28T17:59:01.487Z,5.70
2018-06-28T18:01:30.714Z,6.03
2018-06-28T18:03:59.989Z,5.10
2018-06-28T18:06:29.266Z,5.37
2018-06-28T18:08:58.598Z,6.17
2018-06-28T18:11:28.004Z,5.27
2018-06-28T18:13:57.484Z,6.30
2018-06-28T18:16:26.673Z,6.40
2018-06-28T18:18:55.996Z,6.93
2018-06-28T18:21:25.280Z,5.83
2018-06-28T18:23:54.484Z,6.50
2018-06-28T18:26:23.997Z,5.43
2018-06-28T18:28:53.253Z,6.00
2018-06-28T18:31:22.456Z,5.87
2018-06-28T18:33:51.639Z,7.00
2018-06-28T18:36:20.809Z,6.77
2018-06-28T18:38:50.029Z,6.63
2018-06-28T18:41:19.243Z,6.73
2018-06-28T18:43:48.405Z,6.60
2018-06-28T18:46:17.632Z,6.37
2018-06-28T18:48:46.865Z,6.80
2018-06-28T18:51:16.081Z,5.77
2018-06-28T18:53:45.314Z,6.50
2018-06-28T18:56:14.631Z,5.97
2018-06-28T18:58:43.924Z,6.70
2018-06-28T19:01:13.160Z,6.40
2018-06-28T19:03:42.368Z,6.97
2018-06-28T19:06:11.607Z,6.50
2018-06-28T19:08:40.946Z,6.20
2018-06-28T19:11:10.138Z,12.77
2018-06-28T19:13:44.498Z,6.40
2018-06-28T19:16:19.098Z,6.37
2018-06-28T19:18:48.332Z,5.80
2018-06-28T19:21:22.685Z,6.90
2018-06-28T19:23:52.655Z,6.50
2018-06-28T19:26:21.913Z,6.27
2018-06-28T19:28:51.100Z,6.30
2018-06-28T19:31:25.714Z,6.77
2018-06-28T19:33:55.092Z,6.77
2018-06-28T19:36:24.379Z,6.00
2018-06-28T19:38:58.838Z,6.63
2018-06-28T19:41:33.318Z,7.20
2018-06-28T19:44:02.577Z,7.00
2018-06-28T19:46:31.952Z,6.77
2018-06-28T19:49:01.211Z,7.10
2018-06-28T19:51:35.943Z,7.50
2018-06-28T19:54:05.262Z,7.40
2018-06-28T19:56:34.472Z,7.60
2018-06-28T19:59:03.764Z,7.70
2018-06-28T20:01:38.104Z,7.87
2018-06-28T20:04:12.899Z,8.30
2018-06-28T20:06:43.628Z,7.60
2018-06-28T20:09:13.215Z,8.30
2018-06-28T20:11:42.471Z,7.97
2018-06-28T20:14:16.887Z,8.00
2018-06-28T20:16:51.456Z,7.57
2018-06-28T20:19:25.818Z,8.60
2018-06-28T20:21:55.054Z,8.27
2018-06-28T20:24:24.309Z,8.20
2018-06-28T20:26:58.737Z,9.47
2018-06-28T20:29:33.264Z,8.00
2018-06-28T20:32:07.830Z,8.90
2018-06-28T20:34:37.028Z,8.60
2018-06-28T20:37:06.278Z,8.90
2018-06-28T20:39:35.534Z,11.27
2018-06-28T20:42:04.908Z,9.23
2018-06-28T20:44:34.126Z,8.97
2018-06-28T20:47:03.598Z,8.83
2018-06-28T20:49:32.804Z,10.00
2018-06-28T20:52:02.042Z,10.03
2018-06-28T20:54:31.344Z,8.87
2018-06-28T20:57:00.581Z,10.60
2018-06-28T20:59:29.752Z,9.33
2018-06-28T21:01:58.930Z,10.30
2018-06-28T21:04:28.141Z,10.40
2018-06-28T21:06:57.363Z,10.20
2018-06-28T21:09:26.577Z,10.43
2018-06-28T21:11:55.813Z,10.80
2018-06-28T21:14:24.998Z,11.23
2018-06-28T21:16:54.502Z,10.47
2018-06-28T21:19:23.680Z,10.23
2018-06-28T21:21:52.915Z,10.90
2018-06-28T21:24:22.093Z,11.30
2018-06-28T21:26:51.357Z,12.03
2018-06-28T21:29:20.524Z,11.50
2018-06-28T21:31:49.797Z,11.20
2018-06-28T21:34:19.141Z,12.27
2018-06-28T21:36:48.367Z,11.60
2018-06-28T21:39:17.656Z,11.37
2018-06-28T21:41:46.814Z,11.70
2018-06-28T21:44:16.052Z,12.10
2018-06-28T21:46:45.224Z,12.63
2018-06-28T21:49:14.402Z,11.57
2018-06-28T21:51:43.606Z,11.53
2018-06-28T21:54:12.811Z,11.17
2018-06-28T21:56:42.002Z,12.00
2018-06-28T21:59:11.441Z,13.00
2018-06-28T22:01:50.116Z,12.20
2018-06-28T22:04:19.393Z,12.77
2018-06-28T22:06:48.948Z,12.70
2018-06-28T22:09:19.513Z,12.17
2018-06-28T22:11:48.909Z,12.50
2018-06-28T22:14:18.218Z,12.57
2018-06-28T22:16:47.347Z,12.30
2018-06-28T22:19:16.549Z,11.37
2018-06-28T22:21:45.748Z,12.27
2018-06-28T22:24:14.950Z,13.20
2018-06-28T22:26:44.200Z,12.73
2018-06-28T22:29:14.129Z,12.30
2018-06-28T22:31:43.554Z,10.90
2018-06-28T22:34:12.787Z,12.50
2018-06-28T22:36:42.021Z,14.00
2018-06-28T22:39:12.984Z,13.77
2018-06-28T22:41:42.379Z,12.30
2018-06-28T22:44:11.547Z,13.73
2018-06-28T22:46:40.777Z,13.93
2018-06-28T22:49:10.046Z,12.97
2018-06-28T22:51:39.320Z,13.80
2018-06-28T22:54:08.611Z,13.50
2018-06-28T22:56:37.965Z,13.57
2018-06-28T22:59:07.397Z,13.43
2018-06-28T23:01:36.684Z,13.20
2018-06-28T23:04:05.893Z,13.27
2018-06-28T23:06:35.160Z,13.57
2018-06-28T23:09:06.686Z,13.00
2018-06-28T23:11:35.920Z,12.40
2018-06-28T23:14:05.279Z,11.93
2018-06-28T23:16:34.553Z,12.73
2018-06-28T23:19:03.842Z,11.70
2018-06-28T23:21:33.026Z,12.80
2018-06-28T23:24:02.309Z,13.67
2018-06-28T23:26:31.529Z,12.70
2018-06-28T23:29:00.808Z,12.97
2018-06-28T23:31:30.060Z,12.50
2018-06-28T23:33:59.357Z,14.27
2018-06-28T23:36:28.647Z,13.23
2018-06-28T23:38:57.843Z,14.53
2018-06-28T23:41:27.026Z,13.00
2018-06-28T23:43:56.270Z,12.63
2018-06-28T23:46:25.524Z,12.50
2018-06-28T23:48:54.884Z,13.80
2018-06-28T23:51:24.440Z,12.23
2018-06-28T23:53:53.715Z,13.43
2018-06-28T23:56:22.999Z,13.40
2018-06-28T23:58:52.340Z,13.73
